Terminal Aerodrome Forecast
Issued by NWS

Home | Current Version | Previous Version | Text Only | Print | Product List | Glossary On
Versions: 1 2 3 4 5 6 7 8 9 10 11 12 13 14 15 16 17 18 19 20 21 22
000
FTUS46 KEKA 212343
TAFCEC
TAF
KCEC 212343Z 2200/2224 21005KT P6SM VCSH BKN025 BKN100
      TEMPO 2200/2203 SCT025 BKN100
     FM220300 VRB03KT 6SM BR SCT025 BKN250
     FM221000 VRB03KT 4SM BR SCT003 SCT250
      TEMPO 2213/2216 2SM BR BKN003
     FM221630 32008KT P6SM SCT015
     FM222000 33012G20KT P6SM SKC=

USA.gov is the U.S. government's official web portal to all federal, state and local government web resources and services.